sensor_id;sensor_type;location;lat;lon;timestamp;temperature;humidity
35111;DHT22;21290;50.158;8.658;2023-03-23T00:01:19;14.60;97.60
35111;DHT22;21290;50.158;8.658;2023-03-23T00:03:46;14.60;97.80
35111;DHT22;21290;50.158;8.658;2023-03-23T00:06:13;14.60;97.80
35111;DHT22;21290;50.158;8.658;2023-03-23T00:08:43;14.60;98.00
35111;DHT22;21290;50.158;8.658;2023-03-23T00:11:13;14.60;98.30
35111;DHT22;21290;50.158;8.658;2023-03-23T00:13:42;14.60;98.20
35111;DHT22;21290;50.158;8.658;2023-03-23T00:16:09;14.50;98.40
35111;DHT22;21290;50.158;8.658;2023-03-23T00:18:44;14.50;98.40
35111;DHT22;21290;50.158;8.658;2023-03-23T00:21:09;14.50;98.60
35111;DHT22;21290;50.158;8.658;2023-03-23T00:23:35;14.50;98.60
35111;DHT22;21290;50.158;8.658;2023-03-23T00:26:00;14.50;98.80
35111;DHT22;21290;50.158;8.658;2023-03-23T00:28:27;14.50;98.80
35111;DHT22;21290;50.158;8.658;2023-03-23T00:31:01;14.50;98.90
35111;DHT22;21290;50.158;8.658;2023-03-23T00:33:29;14.50;99.00
35111;DHT22;21290;50.158;8.658;2023-03-23T00:35:55;14.50;99.10
35111;DHT22;21290;50.158;8.658;2023-03-23T00:38:22;14.50;99.20
35111;DHT22;21290;50.158;8.658;2023-03-23T00:40:49;14.50;99.10
35111;DHT22;21290;50.158;8.658;2023-03-23T00:43:16;14.50;99.20
35111;DHT22;21290;50.158;8.658;2023-03-23T00:45:43;14.50;99.30
35111;DHT22;21290;50.158;8.658;2023-03-23T00:48:22;14.50;99.40
35111;DHT22;21290;50.158;8.658;2023-03-23T00:50:48;14.50;99.50
35111;DHT22;21290;50.158;8.658;2023-03-23T00:53:15;14.50;99.50
35111;DHT22;21290;50.158;8.658;2023-03-23T00:55:42;14.40;99.50
35111;DHT22;21290;50.158;8.658;2023-03-23T00:58:08;14.40;99.60
35111;DHT22;21290;50.158;8.658;2023-03-23T01:00:34;14.40;99.60
35111;DHT22;21290;50.158;8.658;2023-03-23T01:03:00;14.40;99.70
35111;DHT22;21290;50.158;8.658;2023-03-23T01:05:26;14.40;99.70
35111;DHT22;21290;50.158;8.658;2023-03-23T01:08:00;14.40;99.70
35111;DHT22;21290;50.158;8.658;2023-03-23T01:10:27;14.40;99.60
35111;DHT22;21290;50.158;8.658;2023-03-23T01:12:53;14.40;99.70
35111;DHT22;21290;50.158;8.658;2023-03-23T01:15:19;14.40;99.80
35111;DHT22;21290;50.158;8.658;2023-03-23T01:17:45;14.40;99.90
35111;DHT22;21290;50.158;8.658;2023-03-23T01:20:12;14.30;99.90
35111;DHT22;21290;50.158;8.658;2023-03-23T01:22:39;14.30;99.90
35111;DHT22;21290;50.158;8.658;2023-03-23T01:25:06;14.30;99.90
35111;DHT22;21290;50.158;8.658;2023-03-23T01:27:32;14.30;99.90
35111;DHT22;21290;50.158;8.658;2023-03-23T01:29:57;14.30;99.90
35111;DHT22;21290;50.158;8.658;2023-03-23T01:32:23;14.30;99.90
35111;DHT22;21290;50.158;8.658;2023-03-23T01:34:49;14.30;99.90
35111;DHT22;21290;50.158;8.658;2023-03-23T01:37:14;14.20;99.90
35111;DHT22;21290;50.158;8.658;2023-03-23T01:39:41;14.20;99.90
35111;DHT22;21290;50.158;8.658;2023-03-23T01:42:10;14.20;99.90
35111;DHT22;21290;50.158;8.658;2023-03-23T01:47:01;14.20;99.90
35111;DHT22;21290;50.158;8.658;2023-03-23T01:49:34;14.10;99.90
35111;DHT22;21290;50.158;8.658;2023-03-23T01:52:09;14.10;99.90
35111;DHT22;21290;50.158;8.658;2023-03-23T01:54:39;14.10;99.90
35111;DHT22;21290;50.158;8.658;2023-03-23T01:57:09;14.10;99.90
35111;DHT22;21290;50.158;8.658;2023-03-23T01:59:36;14.10;99.90
35111;DHT22;21290;50.158;8.658;2023-03-23T02:02:03;14.10;99.90
35111;DHT22;21290;50.158;8.658;2023-03-23T02:04:30;14.10;99.90
35111;DHT22;21290;50.158;8.658;2023-03-23T02:06:56;14.10;99.90
35111;DHT22;21290;50.158;8.658;2023-03-23T02:09:24;14.10;99.90
35111;DHT22;21290;50.158;8.658;2023-03-23T02:11:50;14.10;99.90
35111;DHT22;21290;50.158;8.658;2023-03-23T02:14:17;14.10;99.90
35111;DHT22;21290;50.158;8.658;2023-03-23T02:17:05;14.10;99.90
35111;DHT22;21290;50.158;8.658;2023-03-23T02:22:38;14.10;99.90
35111;DHT22;21290;50.158;8.658;2023-03-23T02:25:20;14.10;99.90
35111;DHT22;21290;50.158;8.658;2023-03-23T02:30:56;14.10;99.90
35111;DHT22;21290;50.158;8.658;2023-03-23T02:33:50;14.10;99.90
35111;DHT22;21290;50.158;8.658;2023-03-23T02:39:13;14.20;99.90
35111;DHT22;21290;50.158;8.658;2023-03-23T02:41:47;14.20;99.90
35111;DHT22;21290;50.158;8.658;2023-03-23T02:44:15;14.20;99.90
35111;DHT22;21290;50.158;8.658;2023-03-23T02:46:42;14.20;99.90
35111;DHT22;21290;50.158;8.658;2023-03-23T02:49:12;14.20;99.90
35111;DHT22;21290;50.158;8.658;2023-03-23T02:51:40;14.10;99.90
35111;DHT22;21290;50.158;8.658;2023-03-23T02:54:08;14.10;99.90
35111;DHT22;21290;50.158;8.658;2023-03-23T02:56:34;13.90;99.90
35111;DHT22;21290;50.158;8.658;2023-03-23T02:59:01;13.70;99.90
35111;DHT22;21290;50.158;8.658;2023-03-23T03:03:54;13.20;99.90
35111;DHT22;21290;50.158;8.658;2023-03-23T03:06:44;13.00;99.90
35111;DHT22;21290;50.158;8.658;2023-03-23T03:09:23;12.80;99.90
35111;DHT22;21290;50.158;8.658;2023-03-23T03:11:59;12.70;99.90
35111;DHT22;21290;50.158;8.658;2023-03-23T03:14:31;12.60;99.90
35111;DHT22;21290;50.158;8.658;2023-03-23T03:17:05;12.50;99.90
35111;DHT22;21290;50.158;8.658;2023-03-23T03:19:38;12.40;99.90
35111;DHT22;21290;50.158;8.658;2023-03-23T03:22:06;12.30;99.90
35111;DHT22;21290;50.158;8.658;2023-03-23T03:24:33;12.20;99.90
35111;DHT22;21290;50.158;8.658;2023-03-23T03:27:03;12.10;99.90
35111;DHT22;21290;50.158;8.658;2023-03-23T03:29:34;12.00;99.90
35111;DHT22;21290;50.158;8.658;2023-03-23T03:32:02;12.00;99.90
35111;DHT22;21290;50.158;8.658;2023-03-23T03:34:31;11.90;99.90
35111;DHT22;21290;50.158;8.658;2023-03-23T03:36:58;11.80;99.90
35111;DHT22;21290;50.158;8.658;2023-03-23T03:39:25;11.80;99.90
35111;DHT22;21290;50.158;8.658;2023-03-23T03:41:51;11.80;99.90
35111;DHT22;21290;50.158;8.658;2023-03-23T03:44:17;11.80;99.90
35111;DHT22;21290;50.158;8.658;2023-03-23T03:46:43;11.80;99.90
35111;DHT22;21290;50.158;8.658;2023-03-23T03:49:10;11.80;99.90
35111;DHT22;21290;50.158;8.658;2023-03-23T03:51:37;11.80;99.90
35111;DHT22;21290;50.158;8.658;2023-03-23T03:54:03;11.80;99.90
35111;DHT22;21290;50.158;8.658;2023-03-23T03:56:29;11.80;99.90
35111;DHT22;21290;50.158;8.658;2023-03-23T03:58:57;11.90;99.90
35111;DHT22;21290;50.158;8.658;2023-03-23T04:01:22;11.90;99.90
35111;DHT22;21290;50.158;8.658;2023-03-23T04:03:50;11.90;99.90
35111;DHT22;21290;50.158;8.658;2023-03-23T04:06:16;12.00;99.90
35111;DHT22;21290;50.158;8.658;2023-03-23T04:08:42;12.00;99.90
35111;DHT22;21290;50.158;8.658;2023-03-23T04:11:09;12.10;99.90
35111;DHT22;21290;50.158;8.658;2023-03-23T04:13:35;12.10;99.90
35111;DHT22;21290;50.158;8.658;2023-03-23T04:16:01;12.20;99.90
35111;DHT22;21290;50.158;8.658;2023-03-23T04:18:27;12.20;99.90
35111;DHT22;21290;50.158;8.658;2023-03-23T04:20:53;12.30;99.90
35111;DHT22;21290;50.158;8.658;2023-03-23T04:23:20;12.40;99.90
35111;DHT22;21290;50.158;8.658;2023-03-23T04:25:48;12.40;99.90
35111;DHT22;21290;50.158;8.658;2023-03-23T04:28:17;12.50;99.90
35111;DHT22;21290;50.158;8.658;2023-03-23T04:30:44;12.50;99.90
35111;DHT22;21290;50.158;8.658;2023-03-23T04:33:11;12.50;99.90
35111;DHT22;21290;50.158;8.658;2023-03-23T04:35:41;12.50;99.90
35111;DHT22;21290;50.158;8.658;2023-03-23T04:38:08;12.50;99.90
35111;DHT22;21290;50.158;8.658;2023-03-23T04:40:38;12.50;99.90
35111;DHT22;21290;50.158;8.658;2023-03-23T04:43:05;12.60;99.90
35111;DHT22;21290;50.158;8.658;2023-03-23T04:45:32;12.60;99.90
35111;DHT22;21290;50.158;8.658;2023-03-23T04:47:58;12.60;99.90
35111;DHT22;21290;50.158;8.658;2023-03-23T04:50:28;12.60;99.90
35111;DHT22;21290;50.158;8.658;2023-03-23T04:52:57;12.70;99.90
35111;DHT22;21290;50.158;8.658;2023-03-23T04:55:25;12.70;99.90
35111;DHT22;21290;50.158;8.658;2023-03-23T04:57:51;12.70;99.90
35111;DHT22;21290;50.158;8.658;2023-03-23T05:00:17;12.70;99.90
35111;DHT22;21290;50.158;8.658;2023-03-23T05:02:45;12.70;99.90
35111;DHT22;21290;50.158;8.658;2023-03-23T05:05:13;12.60;99.90
35111;DHT22;21290;50.158;8.658;2023-03-23T05:07:40;12.60;99.90
35111;DHT22;21290;50.158;8.658;2023-03-23T05:10:07;12.60;99.90
35111;DHT22;21290;50.158;8.658;2023-03-23T05:12:34;12.60;99.90
35111;DHT22;21290;50.158;8.658;2023-03-23T05:14:59;12.60;99.90
35111;DHT22;21290;50.158;8.658;2023-03-23T05:17:25;12.60;99.90
35111;DHT22;21290;50.158;8.658;2023-03-23T05:19:52;12.60;99.90
35111;DHT22;21290;50.158;8.658;2023-03-23T05:22:18;12.50;99.90
35111;DHT22;21290;50.158;8.658;2023-03-23T05:24:46;12.50;99.90
35111;DHT22;21290;50.158;8.658;2023-03-23T05:27:12;12.50;99.90
35111;DHT22;21290;50.158;8.658;2023-03-23T05:29:38;12.50;99.90
35111;DHT22;21290;50.158;8.658;2023-03-23T05:32:07;12.50;99.90
35111;DHT22;21290;50.158;8.658;2023-03-23T05:34:34;12.40;99.90
35111;DHT22;21290;50.158;8.658;2023-03-23T05:37:00;12.40;99.90
35111;DHT22;21290;50.158;8.658;2023-03-23T05:39:27;12.30;99.90
35111;DHT22;21290;50.158;8.658;2023-03-23T05:41:54;12.40;99.90
35111;DHT22;21290;50.158;8.658;2023-03-23T05:44:20;12.40;99.90
35111;DHT22;21290;50.158;8.658;2023-03-23T05:46:46;12.40;99.90
35111;DHT22;21290;50.158;8.658;2023-03-23T05:49:14;12.50;99.90
35111;DHT22;21290;50.158;8.658;2023-03-23T05:51:42;12.50;99.90
35111;DHT22;21290;50.158;8.658;2023-03-23T05:54:08;12.50;99.90
35111;DHT22;21290;50.158;8.658;2023-03-23T05:56:34;12.40;99.90
35111;DHT22;21290;50.158;8.658;2023-03-23T05:59:00;12.50;99.90
35111;DHT22;21290;50.158;8.658;2023-03-23T06:01:26;12.50;99.90
35111;DHT22;21290;50.158;8.658;2023-03-23T06:03:52;12.50;99.90
35111;DHT22;21290;50.158;8.658;2023-03-23T06:06:20;12.50;99.90
35111;DHT22;21290;50.158;8.658;2023-03-23T06:08:46;12.50;99.90
35111;DHT22;21290;50.158;8.658;2023-03-23T06:11:14;12.50;99.90
35111;DHT22;21290;50.158;8.658;2023-03-23T06:13:39;12.60;99.90
35111;DHT22;21290;50.158;8.658;2023-03-23T06:16:05;12.60;99.90
35111;DHT22;21290;50.158;8.658;2023-03-23T06:18:31;12.60;99.90
35111;DHT22;21290;50.158;8.658;2023-03-23T06:20:59;12.70;99.90
35111;DHT22;21290;50.158;8.658;2023-03-23T06:23:26;12.70;99.90
35111;DHT22;21290;50.158;8.658;2023-03-23T06:26:00;12.70;99.90
35111;DHT22;21290;50.158;8.658;2023-03-23T06:28:26;12.80;99.90
35111;DHT22;21290;50.158;8.658;2023-03-23T06:30:52;12.70;99.90
35111;DHT22;21290;50.158;8.658;2023-03-23T06:33:18;12.70;99.90
35111;DHT22;21290;50.158;8.658;2023-03-23T06:35:44;12.60;99.90
35111;DHT22;21290;50.158;8.658;2023-03-23T06:38:10;12.50;99.90
35111;DHT22;21290;50.158;8.658;2023-03-23T06:40:36;12.50;99.90
35111;DHT22;21290;50.158;8.658;2023-03-23T06:43:03;12.50;99.90
35111;DHT22;21290;50.158;8.658;2023-03-23T06:45:31;12.50;99.90
35111;DHT22;21290;50.158;8.658;2023-03-23T06:47:57;12.50;99.90
35111;DHT22;21290;50.158;8.658;2023-03-23T06:50:23;12.60;99.90
35111;DHT22;21290;50.158;8.658;2023-03-23T06:52:50;12.70;99.90
35111;DHT22;21290;50.158;8.658;2023-03-23T06:55:16;12.70;99.90
35111;DHT22;21290;50.158;8.658;2023-03-23T06:57:43;12.70;99.90
35111;DHT22;21290;50.158;8.658;2023-03-23T07:00:10;12.80;99.90
35111;DHT22;21290;50.158;8.658;2023-03-23T07:02:38;12.80;99.90
35111;DHT22;21290;50.158;8.658;2023-03-23T07:05:04;12.80;99.90
35111;DHT22;21290;50.158;8.658;2023-03-23T07:07:30;12.80;99.90
35111;DHT22;21290;50.158;8.658;2023-03-23T07:09:56;12.90;99.90
35111;DHT22;21290;50.158;8.658;2023-03-23T07:12:23;12.90;99.90
35111;DHT22;21290;50.158;8.658;2023-03-23T07:14:49;12.80;99.90
35111;DHT22;21290;50.158;8.658;2023-03-23T07:17:15;12.80;99.90
35111;DHT22;21290;50.158;8.658;2023-03-23T07:19:40;12.80;99.90
35111;DHT22;21290;50.158;8.658;2023-03-23T07:22:07;12.70;99.90
35111;DHT22;21290;50.158;8.658;2023-03-23T07:24:33;12.60;99.90
35111;DHT22;21290;50.158;8.658;2023-03-23T07:26:59;12.50;99.90
35111;DHT22;21290;50.158;8.658;2023-03-23T07:29:25;12.40;99.90
35111;DHT22;21290;50.158;8.658;2023-03-23T07:31:51;12.40;99.90
35111;DHT22;21290;50.158;8.658;2023-03-23T07:34:18;12.40;99.90
35111;DHT22;21290;50.158;8.658;2023-03-23T07:36:44;12.40;99.90
35111;DHT22;21290;50.158;8.658;2023-03-23T07:39:11;12.30;99.90
35111;DHT22;21290;50.158;8.658;2023-03-23T07:41:37;12.30;99.90
35111;DHT22;21290;50.158;8.658;2023-03-23T07:44:04;12.40;99.90
35111;DHT22;21290;50.158;8.658;2023-03-23T07:46:30;12.40;99.90
35111;DHT22;21290;50.158;8.658;2023-03-23T07:48:55;12.50;99.90
35111;DHT22;21290;50.158;8.658;2023-03-23T07:51:22;12.50;99.90
35111;DHT22;21290;50.158;8.658;2023-03-23T07:53:48;12.50;99.90
35111;DHT22;21290;50.158;8.658;2023-03-23T07:56:15;12.50;99.90
35111;DHT22;21290;50.158;8.658;2023-03-23T07:58:47;12.60;99.90
35111;DHT22;21290;50.158;8.658;2023-03-23T08:01:13;12.60;99.90
35111;DHT22;21290;50.158;8.658;2023-03-23T08:03:39;12.60;99.90
35111;DHT22;21290;50.158;8.658;2023-03-23T08:06:05;12.70;99.90
35111;DHT22;21290;50.158;8.658;2023-03-23T08:08:31;12.70;99.90
35111;DHT22;21290;50.158;8.658;2023-03-23T08:10:58;12.70;99.90
35111;DHT22;21290;50.158;8.658;2023-03-23T08:13:24;12.80;99.90
35111;DHT22;21290;50.158;8.658;2023-03-23T08:15:50;12.80;99.90
35111;DHT22;21290;50.158;8.658;2023-03-23T08:18:16;12.80;99.90
35111;DHT22;21290;50.158;8.658;2023-03-23T08:20:43;12.90;99.90
35111;DHT22;21290;50.158;8.658;2023-03-23T08:23:10;12.90;99.90
35111;DHT22;21290;50.158;8.658;2023-03-23T08:25:35;12.90;99.90
35111;DHT22;21290;50.158;8.658;2023-03-23T08:28:01;12.90;99.90
35111;DHT22;21290;50.158;8.658;2023-03-23T08:30:28;12.90;99.90
35111;DHT22;21290;50.158;8.658;2023-03-23T08:32:56;12.90;99.90
35111;DHT22;21290;50.158;8.658;2023-03-23T08:35:22;12.90;99.90
35111;DHT22;21290;50.158;8.658;2023-03-23T08:37:49;12.90;99.90
35111;DHT22;21290;50.158;8.658;2023-03-23T08:40:18;12.90;99.90
35111;DHT22;21290;50.158;8.658;2023-03-23T08:42:45;13.00;99.90
35111;DHT22;21290;50.158;8.658;2023-03-23T08:45:14;13.00;99.90
35111;DHT22;21290;50.158;8.658;2023-03-23T08:47:42;13.00;99.90
35111;DHT22;21290;50.158;8.658;2023-03-23T08:50:10;13.10;99.90
35111;DHT22;21290;50.158;8.658;2023-03-23T08:52:36;13.10;99.90
35111;DHT22;21290;50.158;8.658;2023-03-23T08:55:03;13.20;99.90
35111;DHT22;21290;50.158;8.658;2023-03-23T08:57:28;13.30;99.90
35111;DHT22;21290;50.158;8.658;2023-03-23T08:59:54;13.40;99.90
35111;DHT22;21290;50.158;8.658;2023-03-23T09:02:26;13.40;99.90
35111;DHT22;21290;50.158;8.658;2023-03-23T09:04:52;13.40;99.90
35111;DHT22;21290;50.158;8.658;2023-03-23T09:07:18;13.40;99.90
35111;DHT22;21290;50.158;8.658;2023-03-23T09:09:45;13.40;99.90
35111;DHT22;21290;50.158;8.658;2023-03-23T09:12:10;13.40;99.90
35111;DHT22;21290;50.158;8.658;2023-03-23T09:14:36;13.40;99.90
35111;DHT22;21290;50.158;8.658;2023-03-23T09:17:03;13.50;99.90
35111;DHT22;21290;50.158;8.658;2023-03-23T09:19:30;13.50;99.90
35111;DHT22;21290;50.158;8.658;2023-03-23T09:21:56;13.60;99.90
35111;DHT22;21290;50.158;8.658;2023-03-23T09:24:22;13.60;99.90
35111;DHT22;21290;50.158;8.658;2023-03-23T09:26:48;13.80;99.90
35111;DHT22;21290;50.158;8.658;2023-03-23T09:29:14;13.90;99.90
35111;DHT22;21290;50.158;8.658;2023-03-23T09:31:40;13.90;99.90
35111;DHT22;21290;50.158;8.658;2023-03-23T09:34:07;14.00;99.90
35111;DHT22;21290;50.158;8.658;2023-03-23T09:36:36;14.10;99.90
35111;DHT22;21290;50.158;8.658;2023-03-23T09:39:02;14.20;99.90
35111;DHT22;21290;50.158;8.658;2023-03-23T09:41:37;14.30;99.90
35111;DHT22;21290;50.158;8.658;2023-03-23T09:47:03;14.70;99.90
35111;DHT22;21290;50.158;8.658;2023-03-23T09:52:12;15.20;99.90
35111;DHT22;21290;50.158;8.658;2023-03-23T09:54:39;15.80;99.90
35111;DHT22;21290;50.158;8.658;2023-03-23T09:57:33;16.00;99.90
35111;DHT22;21290;50.158;8.658;2023-03-23T10:00:36;16.20;99.90
35111;DHT22;21290;50.158;8.658;2023-03-23T10:03:17;16.10;99.90
35111;DHT22;21290;50.158;8.658;2023-03-23T10:05:48;16.20;99.90
35111;DHT22;21290;50.158;8.658;2023-03-23T10:08:20;16.10;99.90
35111;DHT22;21290;50.158;8.658;2023-03-23T10:15:49;15.10;99.90
35111;DHT22;21290;50.158;8.658;2023-03-23T10:18:23;14.60;99.90
35111;DHT22;21290;50.158;8.658;2023-03-23T10:20:58;14.40;99.90
35111;DHT22;21290;50.158;8.658;2023-03-23T10:23:44;14.30;99.90
35111;DHT22;21290;50.158;8.658;2023-03-23T10:29:19;14.20;99.90
35111;DHT22;21290;50.158;8.658;2023-03-23T10:32:00;14.20;99.90
35111;DHT22;21290;50.158;8.658;2023-03-23T10:37:04;14.10;99.90
35111;DHT22;21290;50.158;8.658;2023-03-23T10:39:48;14.10;99.90
35111;DHT22;21290;50.158;8.658;2023-03-23T10:42:24;14.20;99.90
35111;DHT22;21290;50.158;8.658;2023-03-23T10:44:50;14.30;99.90
35111;DHT22;21290;50.158;8.658;2023-03-23T10:47:16;14.50;99.90
35111;DHT22;21290;50.158;8.658;2023-03-23T10:49:55;14.80;99.90
35111;DHT22;21290;50.158;8.658;2023-03-23T10:52:36;15.00;99.90
35111;DHT22;21290;50.158;8.658;2023-03-23T10:55:04;15.20;99.90
35111;DHT22;21290;50.158;8.658;2023-03-23T10:57:32;15.20;99.90
35111;DHT22;21290;50.158;8.658;2023-03-23T11:00:16;15.00;99.90
35111;DHT22;21290;50.158;8.658;2023-03-23T11:02:46;14.90;99.90
35111;DHT22;21290;50.158;8.658;2023-03-23T11:05:19;14.80;99.90
35111;DHT22;21290;50.158;8.658;2023-03-23T11:07:56;14.70;99.90
35111;DHT22;21290;50.158;8.658;2023-03-23T11:10:27;14.70;99.90
35111;DHT22;21290;50.158;8.658;2023-03-23T11:12:57;14.70;99.90
35111;DHT22;21290;50.158;8.658;2023-03-23T11:15:35;14.70;99.90
35111;DHT22;21290;50.158;8.658;2023-03-23T11:18:11;14.60;99.90
35111;DHT22;21290;50.158;8.658;2023-03-23T11:20:41;14.60;99.90
35111;DHT22;21290;50.158;8.658;2023-03-23T11:23:19;14.40;99.90
35111;DHT22;21290;50.158;8.658;2023-03-23T11:28:37;14.50;99.90
35111;DHT22;21290;50.158;8.658;2023-03-23T11:31:07;14.80;99.90
35111;DHT22;21290;50.158;8.658;2023-03-23T11:33:55;15.30;99.90
35111;DHT22;21290;50.158;8.658;2023-03-23T11:36:30;15.80;99.90
35111;DHT22;21290;50.158;8.658;2023-03-23T11:38:56;16.30;99.90
35111;DHT22;21290;50.158;8.658;2023-03-23T11:41:23;16.50;99.90
35111;DHT22;21290;50.158;8.658;2023-03-23T11:43:51;16.90;99.90
35111;DHT22;21290;50.158;8.658;2023-03-23T11:46:50;17.00;99.90
35111;DHT22;21290;50.158;8.658;2023-03-23T11:49:32;16.90;99.90
35111;DHT22;21290;50.158;8.658;2023-03-23T11:52:19;16.80;99.90
35111;DHT22;21290;50.158;8.658;2023-03-23T11:54:53;16.50;99.90
35111;DHT22;21290;50.158;8.658;2023-03-23T11:57:20;16.50;99.90
35111;DHT22;21290;50.158;8.658;2023-03-23T11:59:46;16.30;99.90
35111;DHT22;21290;50.158;8.658;2023-03-23T12:02:42;16.20;99.90
35111;DHT22;21290;50.158;8.658;2023-03-23T12:11:00;16.70;99.90
35111;DHT22;21290;50.158;8.658;2023-03-23T12:13:59;16.90;99.90
35111;DHT22;21290;50.158;8.658;2023-03-23T12:19:28;17.10;99.90
35111;DHT22;21290;50.158;8.658;2023-03-23T12:22:50;16.90;99.90
35111;DHT22;21290;50.158;8.658;2023-03-23T12:28:06;16.10;99.90
35111;DHT22;21290;50.158;8.658;2023-03-23T12:31:02;15.90;99.90
35111;DHT22;21290;50.158;8.658;2023-03-23T12:33:42;15.90;99.90
35111;DHT22;21290;50.158;8.658;2023-03-23T12:44:46;16.40;99.90
35111;DHT22;21290;50.158;8.658;2023-03-23T12:50:18;16.30;99.90
35111;DHT22;21290;50.158;8.658;2023-03-23T12:53:03;16.30;99.90
35111;DHT22;21290;50.158;8.658;2023-03-23T12:55:47;16.20;99.90
35111;DHT22;21290;50.158;8.658;2023-03-23T12:58:24;16.20;99.90
35111;DHT22;21290;50.158;8.658;2023-03-23T13:01:08;16.20;99.90
35111;DHT22;21290;50.158;8.658;2023-03-23T13:03:44;16.20;99.90
35111;DHT22;21290;50.158;8.658;2023-03-23T13:11:53;16.10;99.90
35111;DHT22;21290;50.158;8.658;2023-03-23T13:14:31;16.00;99.90
35111;DHT22;21290;50.158;8.658;2023-03-23T13:20:30;15.80;99.90
35111;DHT22;21290;50.158;8.658;2023-03-23T13:25:50;16.00;99.90
35111;DHT22;21290;50.158;8.658;2023-03-23T13:28:18;16.10;99.90
35111;DHT22;21290;50.158;8.658;2023-03-23T13:30:57;16.20;99.90
35111;DHT22;21290;50.158;8.658;2023-03-23T13:33:23;16.40;99.90
35111;DHT22;21290;50.158;8.658;2023-03-23T13:35:49;16.50;99.90
35111;DHT22;21290;50.158;8.658;2023-03-23T13:38:27;16.50;99.90
35111;DHT22;21290;50.158;8.658;2023-03-23T13:40:57;16.70;99.90
35111;DHT22;21290;50.158;8.658;2023-03-23T13:43:32;16.80;99.90
35111;DHT22;21290;50.158;8.658;2023-03-23T13:48:50;16.70;99.90
35111;DHT22;21290;50.158;8.658;2023-03-23T13:51:33;16.50;99.90
35111;DHT22;21290;50.158;8.658;2023-03-23T13:56:53;16.10;99.90
35111;DHT22;21290;50.158;8.658;2023-03-23T14:01:55;16.10;99.90
35111;DHT22;21290;50.158;8.658;2023-03-23T14:04:23;16.20;99.90
35111;DHT22;21290;50.158;8.658;2023-03-23T14:06:57;16.10;99.90
35111;DHT22;21290;50.158;8.658;2023-03-23T14:09:37;16.00;99.90
35111;DHT22;21290;50.158;8.658;2023-03-23T14:12:05;15.90;99.90
35111;DHT22;21290;50.158;8.658;2023-03-23T14:14:45;15.80;99.90
35111;DHT22;21290;50.158;8.658;2023-03-23T14:17:17;15.70;99.90
35111;DHT22;21290;50.158;8.658;2023-03-23T14:19:53;15.50;99.90
35111;DHT22;21290;50.158;8.658;2023-03-23T14:22:28;15.30;99.90
35111;DHT22;21290;50.158;8.658;2023-03-23T14:25:07;15.20;99.90
35111;DHT22;21290;50.158;8.658;2023-03-23T14:27:34;15.10;99.90
35111;DHT22;21290;50.158;8.658;2023-03-23T14:30:06;15.10;99.90
35111;DHT22;21290;50.158;8.658;2023-03-23T14:32:32;15.00;99.90
35111;DHT22;21290;50.158;8.658;2023-03-23T14:35:00;15.00;99.90
35111;DHT22;21290;50.158;8.658;2023-03-23T14:37:31;15.00;99.90
35111;DHT22;21290;50.158;8.658;2023-03-23T14:39:58;15.00;99.90
35111;DHT22;21290;50.158;8.658;2023-03-23T14:42:35;15.10;99.90
35111;DHT22;21290;50.158;8.658;2023-03-23T14:45:02;15.10;99.90
35111;DHT22;21290;50.158;8.658;2023-03-23T14:47:35;15.10;99.90
35111;DHT22;21290;50.158;8.658;2023-03-23T14:50:05;15.20;99.90
35111;DHT22;21290;50.158;8.658;2023-03-23T14:52:36;15.10;99.90
35111;DHT22;21290;50.158;8.658;2023-03-23T14:55:19;15.10;99.90
35111;DHT22;21290;50.158;8.658;2023-03-23T14:57:47;15.10;99.90
35111;DHT22;21290;50.158;8.658;2023-03-23T15:00:22;15.10;99.90
35111;DHT22;21290;50.158;8.658;2023-03-23T15:02:51;15.20;99.90
35111;DHT22;21290;50.158;8.658;2023-03-23T15:05:30;15.30;99.90
35111;DHT22;21290;50.158;8.658;2023-03-23T15:08:04;15.40;99.90
35111;DHT22;21290;50.158;8.658;2023-03-23T15:10:30;15.50;99.90
35111;DHT22;21290;50.158;8.658;2023-03-23T15:12:56;15.50;99.90
35111;DHT22;21290;50.158;8.658;2023-03-23T15:15:31;15.50;99.90
35111;DHT22;21290;50.158;8.658;2023-03-23T15:17:58;15.50;99.90
35111;DHT22;21290;50.158;8.658;2023-03-23T15:20:48;15.50;99.90
35111;DHT22;21290;50.158;8.658;2023-03-23T15:23:27;15.50;99.90
35111;DHT22;21290;50.158;8.658;2023-03-23T15:25:55;15.50;99.90
35111;DHT22;21290;50.158;8.658;2023-03-23T15:28:32;15.40;99.90
35111;DHT22;21290;50.158;8.658;2023-03-23T15:31:04;15.40;99.90
35111;DHT22;21290;50.158;8.658;2023-03-23T15:33:37;15.40;99.90
35111;DHT22;21290;50.158;8.658;2023-03-23T15:36:18;15.40;99.90
35111;DHT22;21290;50.158;8.658;2023-03-23T15:38:46;15.40;99.90
35111;DHT22;21290;50.158;8.658;2023-03-23T15:41:25;15.40;99.90
35111;DHT22;21290;50.158;8.658;2023-03-23T15:43:53;15.30;99.90
35111;DHT22;21290;50.158;8.658;2023-03-23T15:46:23;15.30;99.90
35111;DHT22;21290;50.158;8.658;2023-03-23T15:51:29;15.20;99.90
35111;DHT22;21290;50.158;8.658;2023-03-23T15:53:56;15.20;99.90
35111;DHT22;21290;50.158;8.658;2023-03-23T15:56:23;15.30;99.90
35111;DHT22;21290;50.158;8.658;2023-03-23T15:58:48;15.30;99.90
35111;DHT22;21290;50.158;8.658;2023-03-23T16:01:22;15.20;99.90
35111;DHT22;21290;50.158;8.658;2023-03-23T16:03:50;15.20;99.90
35111;DHT22;21290;50.158;8.658;2023-03-23T16:06:21;15.10;99.90
35111;DHT22;21290;50.158;8.658;2023-03-23T16:08:54;15.00;99.90
35111;DHT22;21290;50.158;8.658;2023-03-23T16:11:23;15.10;99.90
35111;DHT22;21290;50.158;8.658;2023-03-23T16:13:51;15.10;99.90
35111;DHT22;21290;50.158;8.658;2023-03-23T16:16:21;15.00;99.90
35111;DHT22;21290;50.158;8.658;2023-03-23T16:18:48;14.90;99.90
35111;DHT22;21290;50.158;8.658;2023-03-23T16:21:15;14.90;99.90
35111;DHT22;21290;50.158;8.658;2023-03-23T16:23:42;14.80;99.90
35111;DHT22;21290;50.158;8.658;2023-03-23T16:26:13;14.80;99.90
35111;DHT22;21290;50.158;8.658;2023-03-23T16:28:41;14.70;99.90
35111;DHT22;21290;50.158;8.658;2023-03-23T16:31:08;14.70;99.90
35111;DHT22;21290;50.158;8.658;2023-03-23T16:33:35;14.60;99.90
35111;DHT22;21290;50.158;8.658;2023-03-23T16:36:02;14.50;99.90
35111;DHT22;21290;50.158;8.658;2023-03-23T16:38:28;14.30;99.90
35111;DHT22;21290;50.158;8.658;2023-03-23T16:40:55;14.30;99.90
35111;DHT22;21290;50.158;8.658;2023-03-23T16:43:22;14.20;99.90
35111;DHT22;21290;50.158;8.658;2023-03-23T16:45:48;14.10;99.90
35111;DHT22;21290;50.158;8.658;2023-03-23T16:48:15;14.10;99.90
35111;DHT22;21290;50.158;8.658;2023-03-23T16:50:43;14.00;99.90
35111;DHT22;21290;50.158;8.658;2023-03-23T16:53:10;13.90;99.90
35111;DHT22;21290;50.158;8.658;2023-03-23T16:55:37;13.80;99.90
35111;DHT22;21290;50.158;8.658;2023-03-23T16:58:05;13.80;99.90
35111;DHT22;21290;50.158;8.658;2023-03-23T17:00:44;13.80;99.90
35111;DHT22;21290;50.158;8.658;2023-03-23T17:03:11;13.70;99.90
35111;DHT22;21290;50.158;8.658;2023-03-23T17:05:38;13.70;99.90